Algonac, Michigan
Current Conditions -  °F | °C
As of 7:55 AM on Friday 31 Oct 2014 (Local Time) from KMTC Reporting Station
Overcast Overcast  
Wind Chill: 41°   Ceiling: 6000
Heat Index: 44°   Visibility: 10mi
Dew Point: 39°   Wind: 5mph
Humidity: 84%   Direction: 200°SSW
Pressure: 29.86"   Gusts: NA
Location:  42.62°N, 82.53°W
Report Text: KMTC 311155Z 20004KT 10SM FEW040 OVC060 07/04 A2986 RMK SLP124 60000 T00660041 10080 20064 57012
Loading
Personal Weather Stations






























Interactive Weather Map
Tropical Storm Tracking
New forecast layout! Learn more

10-Day Weather Forecast

Advertisements
Track Severe Weather on mobile